Terminal Aerodrome Forecast
Issued by NWS

Home | Current Version | Previous Version | Graphics & Text | Print | Product List | Glossary On
Versions: 1 2 3 4 5 6 7 8 9 10 11 12 13 14 15 16 17 18 19 20 21 22
000
FTUS43 KTOP 240500
TAFFOE
TAF
KFOE 240532Z 2406/2506 09013KT 4SM RA BR BKN012
      TEMPO 2406/2408 2SM RA BR OVC007
     FM240900 12008KT P6SM -SHRA BKN006
     FM241500 16009KT 5SM RA BR BKN010
     FM241800 16013KT P6SM BKN035
      TEMPO 2422/2502 4SM -TSRA OVC015CB
     FM250200 16008KT 4SM -RA BR OVC010=

USA.gov is the U.S. government's official web portal to all federal, state and local government web resources and services.